AirNav   Jet Aviation Boston
 
 908 users online  

2FA6 Freeflight International Airport
Coleman, Florida, USA

GOING TO COLEMAN?


FAA INFORMATION EFFECTIVE 21 JUNE 2018

Location

FAA Identifier: 2FA6
Lat/Long: 28-48-39.9560N / 082-03-55.3080W
28-48.665933N / 082-03.921800W
28.8110989 / -82.0653633
(estimated)
Elevation: 55 ft. / 17 m (estimated)
Variation: 02W (1985)
Time zone: UTC -4 (UTC -5 during Standard Time)
Zip code: 33521

Airport Operations

Airport use: Private use. Permission required prior to landing
Activation date: 12/1973
Control tower: no
ARTCC: JACKSONVILLE CENTER
FSS: SAINT PETERSBURG FLIGHT SERVICE STATION
Attendance: CONTINUOUS
Wind indicator: yes
Segmented circle: no

Airport Communications

UNICOM: 122.7
WX AWOS-3 at INF (13 nm W): 119.975 (352-341-0264)
WX ASOS at LEE (14 nm E): 134.325 (352-787-1565)

Nearby radio navigation aids

VOR radial/distance  VOR name  Freq  Var
OCFr159/23.6OCALA VORTAC113.7000E

 
NDB name  Hdg/Dist  Freq  Var  ID
LEESBURG272/13.633504WLEE .-.. . .

Airport Services

Runway Information

Runway 2/20

Dimensions: 4100 x 100 ft. / 1250 x 30 m
Surface: turf
RUNWAY 2  RUNWAY 20
Traffic pattern: leftleft

Airport Ownership and Management from official FAA records

Ownership: Privately-owned
Owner: FREEFLIGHT INTL INC
PO BOX 600
COLEMAN, FL 33521
Phone 352-748-6629
Manager: FRANK B. ARENAS
FREEFLIGHT INTL INC, PO BOX 600
COLEMAN, FL 33521
Phone 352-748-6629
ADDITIONAL ADDRESS: 1511 TAYLOR AVE COLEMAN, FL 33521

Airport Operational Statistics

Aircraft based on the field: 6
Single engine airplanes: 5
Gliders airplanes: 1
    

Instrument Procedures

There are no published instrument procedures at 2FA6.

Some nearby airports with instrument procedures:

KINF - Inverness Airport (13 nm W)
KLEE - Leesburg International Airport (14 nm E)
X35 - Marion County Airport (22 nm NW)
X23 - Umatilla Municipal Airport (23 nm E)
KOCF - Ocala International Airport-Jim Taylor Field (23 nm N)
 
Loc | Ops | Rwys | IFR | FBO | Links
Com | Nav | Svcs | Stats | Notes


 
Area around 2FA6 (Freeflight International Airport)
 
Road maps at: MapQuest Bing Google
 
Aerial photo
WARNING: Photo may not be current or correct
Aerial photo of 2FA6 (Freeflight International Airport)
Do you have a better or more recent aerial photo of Freeflight International Airport that you would like to share? If so, please send us your photo.

 
Sectional chart

 
Airport distance calculator
Flying to Freeflight International Airport? Find the distance to fly.

From to 2FA6

Sunrise and sunset
Times for 23-Jun-2018
 Local
(UTC-4)
 Zulu
(UTC)
Morning civil twilight06:0510:05
Sunrise06:3210:32
Sunset20:2900:29
Evening civil twilight20:5600:56

Current date and time
Zulu (UTC)  23-Jun-2018 23:21:44
Local (UTC-4)  23-Jun-2018 19:21:44
 
METAR
KLEE 
13nm E 
232253Z AUTO 17004KT 10SM FEW050 28/23 A3000 RMK AO2 LTG DSNT E-S TSE29 SLP158 T02830228
KINF 
13nm W 
232255Z AUTO 00000KT 4SM HZ CLR 32/24 A2999 RMK AO2
KOCF 
23nm N 
232251Z 22007KT 10SM CLR 32/24 A2998 RMK AO2 SLP154 T03220239 $
TAF
KLEE 
13nm E 
231736Z 2318/2418 30006KT P6SM VCSH SCT045 SCT080 FM240000 26004KT P6SM FEW060 SCT200 FM241400 33005KT P6SM SCT040
NOTAMs
Click for the latest NOTAMs
NOTAMs are issued by the DoD/FAA and will open in a separate window not controlled by AirNav.

 

 
 

Aviation Businesses, Services, and Facilities

  
 Business Name 
 
 Contact 
 
 Services / Description 
 
Distance
 
Comments
  
FreeFlight Airport 352-748-6629
[web site]
[email]
Airport management, Aircraft parking (ramp or tiedown), Hangars, Restrooms, Showers, Camping on site, Residence

More info about FreeFlight Airport
on airport  
   write
 

Would you like to see your business listed on this page?

 If your business provides an interesting product or service to pilots, flight crews, aircraft, or users of the Freeflight International Airport, you should consider listing it here.  To start the listing process, click on the button below
 
Add a business
 

Other Pages about Freeflight International Airport

Update a link
 
Copyright © AirNav, LLC. All rights reserved. Privacy Policy  Contact